createdAt,value
2022-08-11T00:01:25.385Z,3.80
2022-08-11T00:04:14.564Z,4.30
2022-08-11T00:07:06.940Z,4.18
2022-08-11T00:09:58.232Z,4.25
2022-08-11T00:12:53.113Z,4.32
2022-08-11T00:15:45.726Z,3.67
2022-08-11T00:18:42.092Z,3.75
2022-08-11T00:21:54.695Z,3.72
2022-08-11T00:24:53.523Z,3.53
2022-08-11T00:27:44.352Z,3.47
2022-08-11T00:30:40.738Z,3.63
2022-08-11T00:33:41.070Z,3.47
2022-08-11T00:36:47.076Z,2.90
2022-08-11T00:39:43.665Z,3.17
2022-08-11T00:42:46.519Z,3.35
2022-08-11T00:45:43.612Z,3.20
2022-08-11T00:48:46.573Z,3.22
2022-08-11T00:52:03.863Z,3.13
2022-08-11T00:55:34.424Z,3.47
2022-08-11T00:58:59.536Z,3.55
2022-08-11T01:02:07.712Z,3.40
2022-08-11T01:05:35.540Z,3.00
2022-08-11T01:09:01.393Z,3.40
2022-08-11T01:12:30.144Z,3.55
2022-08-11T01:15:56.995Z,2.97
2022-08-11T01:19:30.013Z,2.78
2022-08-11T01:23:17.830Z,2.88
2022-08-11T01:26:57.678Z,3.15
2022-08-11T01:30:20.016Z,3.13
2022-08-11T01:33:54.654Z,3.47
2022-08-11T01:37:14.451Z,3.03
2022-08-11T01:40:32.497Z,3.05
2022-08-11T01:44:20.269Z,3.25
2022-08-11T01:47:37.724Z,2.85
2022-08-11T01:50:58.060Z,3.20
2022-08-11T01:53:55.048Z,3.15
2022-08-11T01:56:57.189Z,3.00
2022-08-11T01:59:50.528Z,3.22
2022-08-11T02:02:54.113Z,3.22
2022-08-11T02:05:56.361Z,3.28
2022-08-11T02:08:53.249Z,3.53
2022-08-11T02:11:43.778Z,3.10
2022-08-11T02:14:41.086Z,3.30
2022-08-11T02:18:00.387Z,3.28
2022-08-11T02:21:16.403Z,3.10
2022-08-11T02:24:17.443Z,3.25
2022-08-11T02:27:11.195Z,3.15
2022-08-11T02:30:07.447Z,3.20
2022-08-11T02:33:23.300Z,3.22
2022-08-11T02:36:20.245Z,3.08
2022-08-11T02:39:12.729Z,2.92
2022-08-11T02:42:32.731Z,3.60
2022-08-11T02:45:40.887Z,3.10
2022-08-11T02:48:58.171Z,3.10
2022-08-11T02:52:04.632Z,3.67
2022-08-11T02:55:03.484Z,3.20
2022-08-11T02:57:58.099Z,3.53
2022-08-11T03:00:58.544Z,3.50
2022-08-11T03:03:54.473Z,3.65
2022-08-11T03:06:53.473Z,3.40
2022-08-11T03:09:49.767Z,3.65
2022-08-11T03:13:18.750Z,3.72
2022-08-11T03:16:35.262Z,3.80
2022-08-11T03:19:31.971Z,3.67
2022-08-11T03:22:25.876Z,3.50
2022-08-11T03:25:30.494Z,4.10
2022-08-11T03:28:30.629Z,3.70
2022-08-11T03:31:25.567Z,4.00
2022-08-11T03:34:19.504Z,3.42
2022-08-11T03:37:47.427Z,3.42
2022-08-11T03:41:02.416Z,3.58
2022-08-11T03:44:04.652Z,3.90
2022-08-11T03:47:09.261Z,3.85
2022-08-11T03:50:06.475Z,3.72
2022-08-11T03:53:06.463Z,4.10
2022-08-11T03:56:20.012Z,3.92
2022-08-11T03:59:39.689Z,4.05
2022-08-11T04:03:05.753Z,3.70
2022-08-11T04:06:42.169Z,3.83
2022-08-11T04:10:08.570Z,3.90
2022-08-11T04:13:36.568Z,3.88
2022-08-11T04:16:47.360Z,3.50
2022-08-11T04:20:02.172Z,3.47
2022-08-11T04:24:34.892Z,3.50
2022-08-11T04:27:19.352Z,3.78
2022-08-11T04:30:14.992Z,3.97
2022-08-11T04:33:36.585Z,3.40
2022-08-11T04:37:05.302Z,3.63
2022-08-11T04:40:13.808Z,3.67
2022-08-11T04:43:25.870Z,3.85
2022-08-11T04:46:29.881Z,3.70
2022-08-11T04:49:57.598Z,4.40
2022-08-11T04:53:25.395Z,4.00
2022-08-11T04:56:36.034Z,3.75
2022-08-11T05:00:23.463Z,3.67
2022-08-11T05:03:52.034Z,3.22
2022-08-11T05:07:12.773Z,3.72
2022-08-11T05:10:22.942Z,4.03
2022-08-11T05:13:30.636Z,3.78
2022-08-11T05:16:42.752Z,3.85
2022-08-11T05:19:49.030Z,3.80
2022-08-11T05:23:06.189Z,3.70
2022-08-11T05:26:46.910Z,3.78
2022-08-11T05:30:00.432Z,3.47
2022-08-11T05:33:17.229Z,3.53
2022-08-11T05:36:13.822Z,3.70
2022-08-11T05:39:36.479Z,3.13
2022-08-11T05:42:48.491Z,3.58
2022-08-11T05:46:03.636Z,3.70
2022-08-11T05:49:11.636Z,3.67
2022-08-11T05:52:19.185Z,3.50
2022-08-11T05:55:29.902Z,3.53
2022-08-11T05:58:21.502Z,3.22
2022-08-11T06:01:11.259Z,3.38
2022-08-11T06:04:15.975Z,3.53
2022-08-11T06:07:09.412Z,3.42
2022-08-11T06:09:59.584Z,3.50
2022-08-11T06:12:55.889Z,3.72
2022-08-11T06:15:49.065Z,3.00
2022-08-11T06:18:38.882Z,3.03
2022-08-11T06:21:28.487Z,3.40
2022-08-11T06:24:17.837Z,2.92
2022-08-11T06:27:15.044Z,3.20
2022-08-11T06:30:13.544Z,3.03
2022-08-11T06:33:04.328Z,2.92
2022-08-11T06:36:03.840Z,2.65
2022-08-11T06:39:03.669Z,3.33
2022-08-11T06:41:57.724Z,2.72
2022-08-11T06:45:05.231Z,2.80
2022-08-11T06:47:58.159Z,3.08
2022-08-11T06:51:09.070Z,2.80
2022-08-11T06:54:04.353Z,2.50
2022-08-11T06:57:29.398Z,2.80
2022-08-11T07:00:33.449Z,2.92
2022-08-11T07:03:24.456Z,2.63
2022-08-11T07:06:35.734Z,2.63
2022-08-11T07:10:38.052Z,2.20
2022-08-11T07:13:47.576Z,2.53
2022-08-11T07:16:40.593Z,2.10
2022-08-11T07:19:49.379Z,2.13
2022-08-11T07:23:05.086Z,2.20
2022-08-11T07:26:12.826Z,2.00
2022-08-11T07:29:03.836Z,2.13
2022-08-11T07:31:55.112Z,2.47
2022-08-11T07:34:53.324Z,2.22
2022-08-11T07:37:44.834Z,2.08
2022-08-11T07:40:34.928Z,2.22
2022-08-11T07:43:23.810Z,1.90
2022-08-11T07:46:31.116Z,1.75
2022-08-11T07:49:38.256Z,1.90
2022-08-11T07:52:32.828Z,2.20
2022-08-11T07:55:49.107Z,1.75
2022-08-11T07:58:57.623Z,1.98
2022-08-11T08:02:07.893Z,1.98
2022-08-11T08:05:14.963Z,1.73
2022-08-11T08:08:24.098Z,1.83
2022-08-11T08:11:30.875Z,1.90
2022-08-11T08:14:37.981Z,2.13
2022-08-11T08:17:44.692Z,1.52
2022-08-11T08:20:55.108Z,1.40
2022-08-11T08:23:47.952Z,1.80
2022-08-11T08:26:59.692Z,1.23
2022-08-11T08:30:06.835Z,1.25
2022-08-11T08:32:57.963Z,1.50
2022-08-11T08:35:54.435Z,1.50
2022-08-11T08:38:50.458Z,1.55
2022-08-11T08:41:40.538Z,1.60
2022-08-11T08:44:40.868Z,1.70
2022-08-11T08:47:41.013Z,1.70
2022-08-11T08:50:54.030Z,1.33
2022-08-11T08:53:49.972Z,1.20
2022-08-11T08:56:44.344Z,1.70
2022-08-11T08:59:48.016Z,1.90
2022-08-11T09:02:38.449Z,1.30
2022-08-11T09:05:27.435Z,1.70
2022-08-11T09:08:18.832Z,1.30
2022-08-11T09:11:26.805Z,1.73
2022-08-11T09:14:15.667Z,1.60
2022-08-11T09:17:04.491Z,1.50
2022-08-11T09:20:00.350Z,1.40
2022-08-11T09:24:06.517Z,1.30
2022-08-11T09:26:36.553Z,1.38
2022-08-11T09:29:25.479Z,1.30
2022-08-11T09:32:15.132Z,1.50
2022-08-11T09:35:05.835Z,1.30
2022-08-11T09:38:13.294Z,1.30
2022-08-11T09:41:05.679Z,1.27
2022-08-11T09:44:27.971Z,1.25
2022-08-11T09:47:23.364Z,1.30
2022-08-11T09:50:15.969Z,1.13
2022-08-11T09:53:36.826Z,1.40
2022-08-11T09:56:35.289Z,1.40
2022-08-11T09:59:25.477Z,1.40
2022-08-11T10:02:15.266Z,1.45
2022-08-11T10:05:18.878Z,1.42
2022-08-11T10:08:10.294Z,1.58
2022-08-11T10:10:59.194Z,1.73
2022-08-11T10:14:32.105Z,1.73
2022-08-11T10:17:20.126Z,1.33
2022-08-11T10:20:12.807Z,1.85
2022-08-11T10:23:19.588Z,1.45
2022-08-11T10:26:27.445Z,1.40
2022-08-11T10:29:45.297Z,1.80
2022-08-11T10:33:00.100Z,1.40
2022-08-11T10:35:49.574Z,1.85
2022-08-11T10:38:38.762Z,1.60
2022-08-11T10:42:07.297Z,1.63
2022-08-11T10:44:57.202Z,1.42
2022-08-11T10:47:49.589Z,1.30
2022-08-11T10:50:56.777Z,1.20
2022-08-11T10:54:05.620Z,1.20
2022-08-11T10:57:13.935Z,1.83
2022-08-11T11:00:03.012Z,1.55
2022-08-11T11:03:07.096Z,1.00
2022-08-11T11:06:28.790Z,1.10
2022-08-11T11:09:20.714Z,1.20
2022-08-11T11:12:32.388Z,1.58
2022-08-11T11:15:41.000Z,1.00
2022-08-11T11:18:36.107Z,1.20
2022-08-11T11:21:30.469Z,1.30
2022-08-11T11:24:34.100Z,1.30
2022-08-11T11:27:31.837Z,1.45
2022-08-11T11:30:21.019Z,1.35
2022-08-11T11:33:16.990Z,1.50
2022-08-11T11:36:16.845Z,1.20
2022-08-11T11:39:05.912Z,1.42
2022-08-11T11:41:56.693Z,1.23
2022-08-11T11:44:47.106Z,1.20
2022-08-11T11:47:37.698Z,1.10
2022-08-11T11:50:31.861Z,1.60
2022-08-11T11:53:23.816Z,1.30
2022-08-11T11:56:13.680Z,1.60
2022-08-11T11:59:21.110Z,1.60
2022-08-11T12:02:12.425Z,1.50
2022-08-11T12:05:02.688Z,1.40
2022-08-11T12:08:13.054Z,1.20
2022-08-11T12:11:23.581Z,1.40
2022-08-11T12:14:13.361Z,1.27
2022-08-11T12:17:02.416Z,1.30
2022-08-11T12:19:51.803Z,1.40
2022-08-11T12:22:59.030Z,1.15
2022-08-11T12:26:25.819Z,1.25
2022-08-11T12:29:17.194Z,1.10
2022-08-11T12:32:09.438Z,1.20
2022-08-11T12:34:58.619Z,1.80
2022-08-11T12:37:50.623Z,1.20
2022-08-11T12:44:27.703Z,1.40
2022-08-11T12:47:21.548Z,1.25
2022-08-11T12:50:28.233Z,1.30
2022-08-11T12:53:17.512Z,1.50
2022-08-11T12:56:25.762Z,1.50
2022-08-11T12:59:32.783Z,1.38
2022-08-11T13:02:44.439Z,1.10
2022-08-11T13:05:34.299Z,1.30
2022-08-11T13:08:32.864Z,1.48
2022-08-11T13:11:55.788Z,1.33
2022-08-11T13:14:46.370Z,1.10
2022-08-11T13:17:44.119Z,1.45
2022-08-11T13:20:33.624Z,1.40
2022-08-11T13:23:23.563Z,1.42
2022-08-11T13:26:12.835Z,1.23
2022-08-11T13:29:01.633Z,1.30
2022-08-11T13:31:51.340Z,1.60
2022-08-11T13:34:43.410Z,1.40
2022-08-11T13:38:19.313Z,1.23
2022-08-11T13:40:55.725Z,1.20
2022-08-11T13:43:46.293Z,1.27
2022-08-11T13:46:35.774Z,1.27
2022-08-11T13:49:25.624Z,1.30
2022-08-11T13:52:17.931Z,1.55
2022-08-11T13:55:08.847Z,1.30
2022-08-11T13:58:06.410Z,1.42
2022-08-11T14:02:03.774Z,1.40
2022-08-11T14:04:30.017Z,1.23
2022-08-11T14:07:24.039Z,1.70
2022-08-11T14:10:15.298Z,1.38
2022-08-11T14:13:26.554Z,1.50
2022-08-11T14:16:21.313Z,1.30
2022-08-11T14:19:14.012Z,1.63
2022-08-11T14:22:10.098Z,1.55
2022-08-11T14:25:00.684Z,1.30
2022-08-11T14:28:32.304Z,1.40
2022-08-11T14:31:01.753Z,1.27
2022-08-11T14:34:00.913Z,1.77
2022-08-11T14:36:53.398Z,1.60
2022-08-11T14:39:44.990Z,1.30
2022-08-11T14:42:52.807Z,1.45
2022-08-11T14:45:59.498Z,1.50
2022-08-11T14:48:48.320Z,1.50
2022-08-11T14:51:37.862Z,1.40
2022-08-11T14:54:46.729Z,1.60
2022-08-11T14:57:55.393Z,1.58
2022-08-11T15:00:46.377Z,1.48
2022-08-11T15:03:34.819Z,1.40
2022-08-11T15:06:23.570Z,1.33
2022-08-11T15:09:12.629Z,1.40
2022-08-11T15:12:32.309Z,1.55
2022-08-11T15:15:41.967Z,1.52
2022-08-11T15:18:31.274Z,1.67
2022-08-11T15:21:36.734Z,1.40
2022-08-11T15:24:27.940Z,1.48
2022-08-11T15:27:40.414Z,1.50
2022-08-11T15:30:49.318Z,1.25
2022-08-11T15:33:57.991Z,1.27
2022-08-11T15:37:06.375Z,1.83
2022-08-11T15:40:34.890Z,1.70
2022-08-11T15:43:47.548Z,1.50
2022-08-11T15:46:45.726Z,1.80
2022-08-11T15:50:11.813Z,1.75
2022-08-11T15:52:55.158Z,1.30
2022-08-11T15:55:44.642Z,1.42
2022-08-11T15:59:10.559Z,1.50
2022-08-11T16:02:25.134Z,1.70
2022-08-11T16:05:44.935Z,2.25
2022-08-11T16:08:32.758Z,1.58
2022-08-11T16:11:24.057Z,1.58
2022-08-11T16:14:34.396Z,2.05
2022-08-11T16:17:27.682Z,1.55
2022-08-11T16:20:20.026Z,2.00
2022-08-11T16:23:11.294Z,1.88
2022-08-11T16:27:08.535Z,3.00
2022-08-11T16:29:12.888Z,1.92
2022-08-11T16:32:23.554Z,1.90
2022-08-11T16:35:35.817Z,2.13
2022-08-11T16:38:37.142Z,2.10
2022-08-11T16:41:46.513Z,1.98
2022-08-11T16:44:53.483Z,2.00
2022-08-11T16:48:02.865Z,1.80
2022-08-11T16:50:53.145Z,1.67
2022-08-11T16:54:03.668Z,1.70
2022-08-11T16:56:54.762Z,1.77
2022-08-11T16:59:42.388Z,1.70
2022-08-11T17:02:54.147Z,1.63
2022-08-11T17:06:05.829Z,1.95
2022-08-11T17:09:13.468Z,1.80
2022-08-11T17:12:21.900Z,2.05
2022-08-11T17:15:29.691Z,1.92
2022-08-11T17:18:35.986Z,2.28
2022-08-11T17:21:27.545Z,1.95
2022-08-11T17:24:18.039Z,2.42
2022-08-11T17:27:08.929Z,2.42
2022-08-11T17:29:59.455Z,2.00
2022-08-11T17:33:09.031Z,2.17
2022-08-11T17:35:59.870Z,2.20
2022-08-11T17:38:49.931Z,2.00
2022-08-11T17:41:58.030Z,1.80
2022-08-11T17:45:05.453Z,2.10
2022-08-11T17:48:12.024Z,1.92
2022-08-11T17:51:02.873Z,2.08
2022-08-11T17:54:23.626Z,2.05
2022-08-11T17:57:34.080Z,2.17
2022-08-11T18:00:24.347Z,2.00
2022-08-11T18:03:34.121Z,2.10
2022-08-11T18:06:32.569Z,2.30
2022-08-11T18:09:43.073Z,2.65
2022-08-11T18:12:50.840Z,2.25
2022-08-11T18:15:59.211Z,2.15
2022-08-11T18:19:06.298Z,2.30
2022-08-11T18:22:16.851Z,2.42
2022-08-11T18:25:27.524Z,1.90
2022-08-11T18:28:40.340Z,2.33
2022-08-11T18:31:48.188Z,2.08
2022-08-11T18:35:00.368Z,2.30
2022-08-11T18:38:08.893Z,2.47
2022-08-11T18:41:16.079Z,2.97
2022-08-11T18:44:25.646Z,2.63
2022-08-11T18:47:34.963Z,2.88
2022-08-11T18:50:43.474Z,2.60
2022-08-11T18:53:56.077Z,2.22
2022-08-11T18:57:05.980Z,3.17
2022-08-11T19:00:14.800Z,2.60
2022-08-11T19:03:24.406Z,2.63
2022-08-11T19:06:39.200Z,2.80
2022-08-11T19:09:47.698Z,2.97
2022-08-11T19:12:57.182Z,2.50
2022-08-11T19:16:06.216Z,2.75
2022-08-11T19:19:13.439Z,2.40
2022-08-11T19:22:21.910Z,2.22
2022-08-11T19:25:30.750Z,2.38
2022-08-11T19:28:39.166Z,2.42
2022-08-11T19:31:48.324Z,3.05
2022-08-11T19:34:55.590Z,2.85
2022-08-11T19:38:04.450Z,2.95
2022-08-11T19:41:13.612Z,2.63
2022-08-11T19:44:24.539Z,3.22
2022-08-11T19:47:35.816Z,3.03
2022-08-11T19:50:42.706Z,2.80
2022-08-11T19:53:51.304Z,2.47
2022-08-11T19:56:58.742Z,2.50
2022-08-11T20:00:05.874Z,2.47
2022-08-11T20:03:13.623Z,2.70
2022-08-11T20:06:21.948Z,2.88
2022-08-11T20:10:04.630Z,2.55
2022-08-11T20:12:59.204Z,2.42
2022-08-11T20:16:05.931Z,2.30
2022-08-11T20:19:15.629Z,2.40
2022-08-11T20:22:22.363Z,2.55
2022-08-11T20:25:30.316Z,3.03
2022-08-11T20:28:38.773Z,2.40
2022-08-11T20:31:44.794Z,2.60
2022-08-11T20:34:55.179Z,2.78
2022-08-11T20:38:03.465Z,3.03
2022-08-11T20:41:10.508Z,2.80
2022-08-11T20:44:18.010Z,2.83
2022-08-11T20:47:26.439Z,2.47
2022-08-11T20:50:36.195Z,2.63
2022-08-11T20:53:45.613Z,3.00
2022-08-11T20:56:54.355Z,2.80
2022-08-11T21:00:01.927Z,2.88
2022-08-11T21:03:10.254Z,2.67
2022-08-11T21:09:58.831Z,2.40
2022-08-11T21:13:42.269Z,2.67
2022-08-11T21:16:53.291Z,2.97
2022-08-11T21:20:07.826Z,2.65
2022-08-11T21:23:23.933Z,2.70
2022-08-11T21:26:34.283Z,2.70
2022-08-11T21:29:42.183Z,2.63
2022-08-11T21:32:50.594Z,2.78
2022-08-11T21:35:57.032Z,2.72
2022-08-11T21:39:06.971Z,2.50
2022-08-11T21:42:13.567Z,3.00
2022-08-11T21:45:20.752Z,2.65
2022-08-11T21:48:29.561Z,2.47
2022-08-11T21:51:35.403Z,2.60
2022-08-11T21:54:44.861Z,2.40
2022-08-11T21:57:51.606Z,2.50
2022-08-11T22:00:58.262Z,2.33
2022-08-11T22:04:05.364Z,2.35
2022-08-11T22:07:12.167Z,2.30
2022-08-11T22:10:41.055Z,2.53
2022-08-11T22:14:02.959Z,2.40
2022-08-11T22:17:12.289Z,2.47
2022-08-11T22:20:20.327Z,2.25
2022-08-11T22:23:30.548Z,2.50
2022-08-11T22:26:47.463Z,2.25
2022-08-11T22:29:53.991Z,2.40
2022-08-11T22:33:01.547Z,2.20
2022-08-11T22:36:08.793Z,2.17
2022-08-11T22:39:19.065Z,2.20
2022-08-11T22:42:33.697Z,2.33
2022-08-11T22:45:40.952Z,2.45
2022-08-11T22:48:49.294Z,2.50
2022-08-11T22:51:57.684Z,2.63
2022-08-11T22:55:05.851Z,2.55
2022-08-11T22:58:17.484Z,2.50
2022-08-11T23:01:24.208Z,2.28
2022-08-11T23:04:31.723Z,2.58
2022-08-11T23:07:49.803Z,2.42
2022-08-11T23:10:58.143Z,2.45
2022-08-11T23:14:06.413Z,2.17
2022-08-11T23:17:13.835Z,2.55
2022-08-11T23:20:22.415Z,2.70
2022-08-11T23:23:43.766Z,2.97
2022-08-11T23:26:50.853Z,3.22
2022-08-11T23:30:00.206Z,2.92
2022-08-11T23:33:11.216Z,3.00
2022-08-11T23:36:35.866Z,3.10
2022-08-11T23:39:44.199Z,2.83
2022-08-11T23:42:56.117Z,2.92
2022-08-11T23:46:04.434Z,2.90
2022-08-11T23:49:15.558Z,2.33
2022-08-11T23:52:22.847Z,3.05
2022-08-11T23:55:29.142Z,2.88
2022-08-11T23:58:35.341Z,2.72
